createdAt,value
2024-01-15T00:00:31.306Z,19.70
2024-01-15T00:02:58.655Z,16.93
2024-01-15T00:05:25.791Z,18.33
2024-01-15T00:07:52.736Z,18.63
2024-01-15T00:10:19.652Z,19.27
2024-01-15T00:12:46.510Z,19.53
2024-01-15T00:15:13.545Z,20.37
2024-01-15T00:17:40.668Z,19.00
2024-01-15T00:20:08.280Z,19.30
2024-01-15T00:22:36.930Z,19.40
2024-01-15T00:25:04.398Z,21.20
2024-01-15T00:27:31.313Z,17.73
2024-01-15T00:29:58.262Z,20.90
2024-01-15T00:32:25.268Z,18.20
2024-01-15T00:34:52.433Z,18.90
2024-01-15T00:37:19.399Z,18.50
2024-01-15T00:39:46.333Z,20.33
2024-01-15T00:42:13.321Z,20.70
2024-01-15T00:44:40.214Z,17.17
2024-01-15T00:47:07.219Z,19.10
2024-01-15T00:49:34.359Z,18.90
2024-01-15T00:52:01.283Z,20.27
2024-01-15T00:54:28.371Z,19.23
2024-01-15T00:56:56.206Z,19.33
2024-01-15T00:59:23.245Z,17.00
2024-01-15T01:01:50.495Z,17.20
2024-01-15T01:04:17.666Z,18.93
2024-01-15T01:06:44.984Z,18.27
2024-01-15T01:09:12.084Z,17.70
2024-01-15T01:11:39.010Z,16.47
2024-01-15T01:14:06.243Z,16.70
2024-01-15T01:16:40.246Z,17.17
2024-01-15T01:19:08.827Z,16.57
2024-01-15T01:21:36.166Z,15.80
2024-01-15T01:24:03.212Z,17.07
2024-01-15T01:26:30.164Z,19.27
2024-01-15T01:28:57.102Z,17.23
2024-01-15T01:31:25.204Z,17.40
2024-01-15T01:33:52.388Z,15.67
2024-01-15T01:36:19.606Z,16.10
2024-01-15T01:38:46.620Z,14.63
2024-01-15T01:41:13.596Z,14.83
2024-01-15T01:43:40.555Z,16.17
2024-01-15T01:46:08.696Z,15.20
2024-01-15T01:48:37.662Z,15.37
2024-01-15T01:51:05.758Z,14.40
2024-01-15T01:53:34.675Z,16.57
2024-01-15T01:56:02.256Z,14.80
2024-01-15T01:58:30.081Z,12.23
2024-01-15T02:00:57.362Z,12.07
2024-01-15T02:03:24.545Z,14.63
2024-01-15T02:05:52.481Z,14.33
2024-01-15T02:08:19.709Z,11.93
2024-01-15T02:10:46.585Z,12.80
2024-01-15T02:13:13.464Z,12.30
2024-01-15T02:15:40.948Z,13.90
2024-01-15T02:18:09.449Z,14.47
2024-01-15T02:20:36.803Z,13.73
2024-01-15T02:23:11.840Z,13.23
2024-01-15T02:25:48.299Z,13.00
2024-01-15T02:28:18.086Z,12.70
2024-01-15T02:30:45.608Z,12.77
2024-01-15T02:33:13.891Z,14.67
2024-01-15T02:35:41.134Z,14.73
2024-01-15T02:38:08.738Z,12.97
2024-01-15T02:40:36.085Z,13.23
2024-01-15T02:43:03.226Z,13.70
2024-01-15T02:48:08.212Z,14.47
2024-01-15T02:50:35.136Z,13.73
2024-01-15T02:53:02.033Z,14.30
2024-01-15T02:55:30.946Z,12.43
2024-01-15T02:57:58.091Z,13.80
2024-01-15T03:00:25.076Z,13.23
2024-01-15T03:02:52.816Z,14.20
2024-01-15T03:05:19.834Z,13.10
2024-01-15T03:07:46.745Z,12.90
2024-01-15T03:10:13.659Z,14.03
2024-01-15T03:12:40.642Z,12.67
2024-01-15T03:15:07.711Z,12.00
2024-01-15T03:17:34.767Z,12.90
2024-01-15T03:20:01.900Z,12.67
2024-01-15T03:22:28.894Z,12.50
2024-01-15T03:24:55.902Z,11.67
2024-01-15T03:27:22.916Z,12.20
2024-01-15T03:29:49.915Z,13.00
2024-01-15T03:32:17.630Z,12.77
2024-01-15T03:37:11.620Z,10.67
2024-01-15T03:39:38.635Z,10.33
2024-01-15T03:42:06.017Z,10.47
2024-01-15T03:44:32.945Z,10.37
2024-01-15T03:47:00.189Z,11.30
2024-01-15T03:49:27.171Z,11.40
2024-01-15T03:51:54.138Z,11.10
2024-01-15T03:54:21.295Z,11.20
2024-01-15T03:56:48.358Z,12.30
2024-01-15T03:59:15.289Z,10.20
2024-01-15T04:01:42.280Z,12.10
2024-01-15T04:04:09.336Z,12.37
2024-01-15T04:06:36.445Z,10.40
2024-01-15T04:09:04.266Z,11.17
2024-01-15T04:11:31.164Z,11.60
2024-01-15T04:13:58.077Z,11.17
2024-01-15T04:16:24.941Z,11.20
2024-01-15T04:18:52.044Z,10.60
2024-01-15T04:21:20.022Z,11.70
2024-01-15T04:23:47.250Z,11.77
2024-01-15T04:26:14.109Z,11.77
2024-01-15T04:28:41.748Z,10.53
2024-01-15T04:31:08.879Z,10.40
2024-01-15T04:33:36.127Z,11.13
2024-01-15T04:36:05.296Z,11.43
2024-01-15T04:38:33.782Z,11.43
2024-01-15T04:41:00.684Z,9.80
2024-01-15T04:43:27.575Z,10.27
2024-01-15T04:45:54.468Z,11.87
2024-01-15T04:48:21.528Z,9.83
2024-01-15T04:50:48.449Z,11.07
2024-01-15T04:53:15.575Z,9.60
2024-01-15T04:55:42.478Z,9.50
2024-01-15T04:58:09.357Z,10.30
2024-01-15T05:00:36.325Z,10.50
2024-01-15T05:03:03.307Z,10.23
2024-01-15T05:05:30.241Z,7.87
2024-01-15T05:07:57.124Z,7.93
2024-01-15T05:10:24.033Z,7.87
2024-01-15T05:12:51.100Z,7.70
2024-01-15T05:15:23.901Z,8.40
2024-01-15T05:17:50.932Z,6.60
2024-01-15T05:20:18.101Z,7.00
2024-01-15T05:22:45.112Z,6.50
2024-01-15T05:25:12.115Z,8.77
2024-01-15T05:27:39.200Z,7.73
2024-01-15T05:30:06.694Z,7.50
2024-01-15T05:32:33.828Z,6.80
2024-01-15T05:35:00.803Z,7.70
2024-01-15T05:37:27.687Z,7.37
2024-01-15T05:39:54.597Z,8.83
2024-01-15T05:42:21.550Z,7.87
2024-01-15T05:44:48.439Z,7.07
2024-01-15T05:47:15.368Z,8.00
2024-01-15T05:49:42.428Z,6.67
2024-01-15T05:52:09.371Z,7.17
2024-01-15T05:54:36.348Z,6.07
2024-01-15T05:57:03.376Z,5.20
2024-01-15T05:59:33.501Z,4.80
2024-01-15T06:02:00.390Z,4.80
2024-01-15T06:04:27.354Z,4.73
2024-01-15T06:06:54.417Z,4.80
2024-01-15T06:09:21.352Z,4.23
2024-01-15T06:11:48.257Z,4.50
2024-01-15T06:14:15.214Z,5.03
2024-01-15T06:16:42.078Z,5.70
2024-01-15T06:19:09.033Z,5.87
2024-01-15T06:21:36.091Z,6.53
2024-01-15T06:24:03.139Z,8.23
2024-01-15T06:26:30.095Z,8.63
2024-01-15T06:28:56.956Z,10.30
2024-01-15T06:31:24.037Z,9.43
2024-01-15T06:33:51.205Z,10.00
2024-01-15T06:36:18.290Z,11.97
2024-01-15T06:38:45.846Z,11.97
2024-01-15T06:41:12.727Z,13.13
2024-01-15T06:43:39.714Z,13.90
2024-01-15T06:46:08.076Z,13.40
2024-01-15T06:48:36.172Z,11.90
2024-01-15T06:51:03.233Z,11.50
2024-01-15T06:53:30.096Z,11.47
2024-01-15T06:55:56.948Z,11.73
2024-01-15T06:58:23.888Z,11.33
2024-01-15T07:00:50.937Z,11.13
2024-01-15T07:03:17.994Z,10.50
2024-01-15T07:05:45.143Z,9.80
2024-01-15T07:08:12.071Z,9.53
2024-01-15T07:10:38.949Z,10.60
2024-01-15T07:13:06.877Z,8.77
2024-01-15T07:15:33.822Z,9.20
2024-01-15T07:18:00.853Z,10.63
2024-01-15T07:20:28.280Z,9.73
2024-01-15T07:22:55.170Z,9.50
2024-01-15T07:25:22.093Z,10.80
2024-01-15T07:27:49.175Z,8.93
2024-01-15T07:30:16.482Z,9.40
2024-01-15T07:32:43.598Z,9.00
2024-01-15T07:35:11.842Z,9.17
2024-01-15T07:37:38.832Z,9.20
2024-01-15T07:40:08.251Z,7.80
2024-01-15T07:42:35.850Z,8.47
2024-01-15T07:45:02.848Z,7.70
2024-01-15T07:47:29.948Z,8.80
2024-01-15T07:50:00.259Z,8.40
2024-01-15T07:52:29.093Z,8.43
2024-01-15T07:54:56.361Z,7.97
2024-01-15T07:57:24.103Z,7.23
2024-01-15T07:59:51.112Z,7.60
2024-01-15T08:02:17.996Z,6.73
2024-01-15T08:04:45.736Z,6.80
2024-01-15T08:07:12.908Z,7.80
2024-01-15T08:09:39.923Z,7.03
2024-01-15T08:12:07.576Z,7.03
2024-01-15T08:14:34.985Z,7.43
2024-01-15T08:17:02.914Z,7.07
2024-01-15T08:19:29.986Z,6.70
2024-01-15T08:21:57.070Z,6.47
2024-01-15T08:24:24.122Z,6.70
2024-01-15T08:26:51.027Z,6.67
2024-01-15T08:29:19.786Z,8.30
2024-01-15T08:31:47.051Z,8.23
2024-01-15T08:34:14.231Z,6.80
2024-01-15T08:36:41.988Z,5.27
2024-01-15T08:39:10.521Z,5.70
2024-01-15T08:41:37.546Z,6.57
2024-01-15T08:44:04.557Z,4.00
2024-01-15T08:46:31.631Z,5.17
2024-01-15T08:48:58.797Z,4.93
2024-01-15T08:51:25.794Z,4.60
2024-01-15T08:53:52.715Z,4.10
2024-01-15T08:56:19.578Z,5.27
2024-01-15T08:58:47.497Z,4.07
2024-01-15T09:01:14.882Z,4.70
2024-01-15T09:03:45.070Z,4.20
2024-01-15T09:06:12.225Z,4.87
2024-01-15T09:08:39.203Z,4.80
2024-01-15T09:11:06.135Z,4.67
2024-01-15T09:13:33.512Z,4.70
2024-01-15T09:16:01.541Z,4.30
2024-01-15T09:18:29.299Z,5.50
2024-01-15T09:20:56.261Z,4.20
2024-01-15T09:23:23.161Z,4.33
2024-01-15T09:25:50.985Z,3.83
2024-01-15T09:28:17.904Z,3.67
2024-01-15T09:30:46.318Z,4.00
2024-01-15T09:33:13.928Z,4.50
2024-01-15T09:35:41.220Z,4.13
2024-01-15T09:38:08.109Z,4.50
2024-01-15T09:40:35.185Z,4.00
2024-01-15T09:43:03.804Z,4.27
2024-01-15T09:48:07.852Z,3.80
2024-01-15T09:50:35.069Z,4.73
2024-01-15T09:53:02.613Z,4.10
2024-01-15T09:55:30.709Z,3.90
2024-01-15T09:57:59.255Z,3.80
2024-01-15T10:00:27.380Z,3.90
2024-01-15T10:02:54.510Z,2.70
2024-01-15T10:05:21.418Z,2.97
2024-01-15T10:07:51.322Z,3.37
2024-01-15T10:10:18.272Z,2.80
2024-01-15T10:12:45.461Z,2.60
2024-01-15T10:15:13.485Z,4.90
2024-01-15T10:17:41.683Z,5.27
2024-01-15T10:20:11.160Z,2.70
2024-01-15T10:22:44.430Z,2.50
2024-01-15T10:25:12.377Z,2.70
2024-01-15T10:27:39.402Z,2.53
2024-01-15T10:30:07.500Z,2.60
2024-01-15T10:32:34.529Z,2.17
2024-01-15T10:35:01.621Z,2.30
2024-01-15T10:37:29.999Z,1.93
2024-01-15T10:39:57.135Z,1.63
2024-01-15T10:42:24.195Z,1.60
2024-01-15T10:44:51.144Z,1.30
2024-01-15T10:47:18.909Z,1.10
2024-01-15T10:49:47.291Z,1.20
2024-01-15T10:52:14.906Z,1.20
2024-01-15T10:54:44.465Z,1.37
2024-01-15T10:57:12.415Z,1.70
2024-01-15T10:59:39.352Z,1.33
2024-01-15T11:02:06.928Z,1.20
2024-01-15T11:04:34.247Z,1.43
2024-01-15T11:07:01.666Z,1.47
2024-01-15T11:09:28.751Z,1.57
2024-01-15T11:12:18.704Z,1.60
2024-01-15T11:14:49.990Z,1.30
2024-01-15T11:17:19.000Z,3.17
2024-01-15T11:19:48.480Z,1.50
2024-01-15T11:22:30.800Z,2.97
2024-01-15T11:25:18.461Z,1.60
2024-01-15T11:27:46.182Z,1.73
2024-01-15T11:30:14.179Z,1.37
2024-01-15T11:32:44.840Z,1.70
2024-01-15T11:35:12.631Z,1.77
2024-01-15T11:37:58.522Z,2.20
2024-01-15T11:40:35.224Z,2.17
2024-01-15T11:43:03.769Z,2.30
2024-01-15T11:48:15.997Z,2.90
2024-01-15T11:50:45.156Z,3.33
2024-01-15T11:53:36.599Z,3.30
2024-01-15T11:56:07.673Z,4.90
2024-01-15T11:58:36.821Z,3.47
2024-01-15T12:01:03.949Z,3.40
2024-01-15T12:03:34.977Z,4.63
2024-01-15T12:06:02.773Z,4.10
2024-01-15T12:08:29.694Z,3.67
2024-01-15T12:10:58.294Z,4.93
2024-01-15T12:13:25.339Z,4.97
2024-01-15T12:15:52.431Z,4.50
2024-01-15T12:18:21.078Z,5.50
2024-01-15T12:20:48.977Z,4.73
2024-01-15T12:23:16.737Z,4.27
2024-01-15T12:25:43.849Z,3.93
2024-01-15T12:28:11.592Z,4.23
2024-01-15T12:30:39.508Z,3.50
2024-01-15T12:33:08.018Z,3.33
2024-01-15T12:35:39.317Z,3.37
2024-01-15T12:38:07.517Z,4.23
2024-01-15T12:40:37.032Z,5.70
2024-01-15T12:43:06.567Z,3.50
2024-01-15T12:48:06.754Z,2.73
2024-01-15T12:50:35.047Z,2.70
2024-01-15T12:53:02.589Z,3.00
2024-01-15T12:55:29.614Z,2.33
2024-01-15T12:57:56.968Z,3.07
2024-01-15T13:00:24.409Z,2.17
2024-01-15T13:02:51.778Z,2.27
2024-01-15T13:05:19.996Z,2.10
2024-01-15T13:07:47.076Z,2.27
2024-01-15T13:10:14.063Z,1.37
2024-01-15T13:12:42.490Z,1.23
2024-01-15T13:15:14.688Z,1.10
2024-01-15T13:17:43.349Z,1.27
2024-01-15T13:20:12.757Z,1.17
2024-01-15T13:22:41.281Z,1.50
2024-01-15T13:25:09.701Z,1.50
2024-01-15T13:27:39.095Z,1.40
2024-01-15T13:30:08.657Z,1.37
2024-01-15T13:32:35.873Z,1.60
2024-01-15T13:35:03.948Z,1.23
2024-01-15T13:37:30.837Z,1.20
2024-01-15T13:39:57.873Z,1.93
2024-01-15T13:42:25.042Z,1.53
2024-01-15T13:44:52.745Z,1.30
2024-01-15T13:47:19.836Z,1.20
2024-01-15T13:49:46.939Z,1.37
2024-01-15T13:52:14.392Z,1.53
2024-01-15T13:54:49.020Z,1.40
2024-01-15T13:57:19.217Z,1.30
2024-01-15T13:59:47.014Z,1.70
2024-01-15T14:02:16.193Z,1.77
2024-01-15T14:04:45.241Z,1.43
2024-01-15T14:07:12.162Z,2.00
2024-01-15T14:09:39.378Z,1.30
2024-01-15T14:12:07.739Z,1.93
2024-01-15T14:14:34.978Z,1.70
2024-01-15T14:17:02.006Z,1.43
2024-01-15T14:19:29.525Z,1.80
2024-01-15T14:21:56.959Z,1.13
2024-01-15T14:24:24.136Z,2.00
2024-01-15T14:26:51.015Z,1.30
2024-01-15T14:29:19.909Z,1.50
2024-01-15T14:31:47.928Z,1.80
2024-01-15T14:34:15.233Z,1.43
2024-01-15T14:36:42.702Z,1.33
2024-01-15T14:39:10.942Z,1.93
2024-01-15T14:41:38.039Z,1.30
2024-01-15T14:44:05.060Z,1.60
2024-01-15T14:46:32.086Z,1.40
2024-01-15T14:49:00.032Z,1.30
2024-01-15T14:51:27.547Z,1.17
2024-01-15T14:53:54.682Z,1.20
2024-01-15T14:56:22.276Z,1.33
2024-01-15T14:58:49.350Z,0.93
2024-01-15T15:01:16.976Z,1.20
2024-01-15T15:03:45.726Z,1.40
2024-01-15T15:06:14.053Z,1.30
2024-01-15T15:08:41.675Z,1.40
2024-01-15T15:11:08.760Z,1.70
2024-01-15T15:13:42.552Z,1.70
2024-01-15T15:16:14.683Z,1.47
2024-01-15T15:18:44.657Z,2.40
2024-01-15T15:21:12.977Z,2.20
2024-01-15T15:23:42.981Z,2.00
2024-01-15T15:26:10.529Z,2.13
2024-01-15T15:28:40.222Z,2.10
2024-01-15T15:31:10.024Z,2.57
2024-01-15T15:33:37.519Z,2.60
2024-01-15T15:36:06.563Z,2.83
2024-01-15T15:38:33.941Z,2.13
2024-01-15T15:41:00.983Z,2.80
2024-01-15T15:43:28.752Z,9.07
2024-01-15T15:45:57.346Z,7.30
2024-01-15T15:48:25.101Z,4.60
2024-01-15T15:50:57.311Z,5.77
2024-01-15T15:53:25.915Z,16.93
2024-01-15T15:55:53.237Z,10.30
2024-01-15T15:58:21.553Z,12.10
2024-01-15T16:00:48.668Z,7.07
2024-01-15T16:03:15.698Z,8.33
2024-01-15T16:05:51.702Z,12.27
2024-01-15T16:08:21.061Z,40.37
2024-01-15T16:10:53.279Z,12.10
2024-01-15T16:13:20.908Z,4.97
2024-01-15T16:15:48.270Z,3.37
2024-01-15T16:23:19.826Z,2.90
2024-01-15T16:23:34.423Z,3.87
2024-01-15T16:24:11.121Z,5.53
2024-01-15T16:26:37.857Z,3.60
2024-01-15T16:29:05.300Z,2.67
2024-01-15T16:31:32.809Z,3.13
2024-01-15T16:34:04.933Z,2.93
2024-01-15T16:36:33.603Z,2.30
2024-01-15T16:39:00.809Z,2.57
2024-01-15T16:41:27.861Z,3.60
2024-01-15T16:43:54.832Z,4.27
2024-01-15T16:46:21.820Z,3.87
2024-01-15T16:48:48.971Z,2.43
2024-01-15T16:51:15.976Z,3.17
2024-01-15T16:53:42.878Z,3.90
2024-01-15T16:56:09.880Z,2.93
2024-01-15T16:58:36.869Z,3.07
2024-01-15T17:01:03.998Z,4.77
2024-01-15T17:03:31.134Z,2.27
2024-01-15T17:05:58.185Z,2.77
2024-01-15T17:08:26.040Z,3.10
2024-01-15T17:10:53.031Z,2.67
2024-01-15T17:13:19.936Z,3.30
2024-01-15T17:15:46.984Z,3.23
2024-01-15T17:18:14.046Z,4.27
2024-01-15T17:20:43.967Z,5.27
2024-01-15T17:23:11.063Z,5.30
2024-01-15T17:25:38.112Z,3.73
2024-01-15T17:28:05.385Z,4.30
2024-01-15T17:30:32.364Z,4.00
2024-01-15T17:32:59.592Z,3.50
2024-01-15T17:35:27.089Z,4.50
2024-01-15T17:37:54.073Z,3.83
2024-01-15T17:40:21.043Z,4.53
2024-01-15T17:42:48.680Z,4.20
2024-01-15T17:45:16.352Z,3.97
2024-01-15T17:47:43.452Z,3.50
2024-01-15T17:50:10.919Z,3.60
2024-01-15T17:52:38.040Z,4.40
2024-01-15T17:55:06.670Z,3.30
2024-01-15T17:57:33.555Z,4.10
2024-01-15T18:00:00.523Z,3.10
2024-01-15T18:02:27.653Z,4.50
2024-01-15T18:04:54.588Z,3.40
2024-01-15T18:07:21.488Z,3.57
2024-01-15T18:09:48.551Z,3.03
2024-01-15T18:12:15.635Z,4.20
2024-01-15T18:14:42.632Z,3.43
2024-01-15T18:17:10.074Z,4.33
2024-01-15T18:19:37.146Z,3.70
2024-01-15T18:22:04.316Z,3.27
2024-01-15T18:24:31.198Z,4.60
2024-01-15T18:26:58.373Z,3.43
2024-01-15T18:29:25.746Z,4.63
2024-01-15T18:31:52.622Z,7.40
2024-01-15T18:34:19.623Z,4.47
2024-01-15T18:36:47.997Z,3.57
2024-01-15T18:39:17.994Z,3.90
2024-01-15T18:41:45.679Z,3.93
2024-01-15T18:44:13.262Z,3.63
2024-01-15T18:46:44.751Z,3.40
2024-01-15T18:49:12.983Z,4.20
2024-01-15T18:51:39.939Z,3.43
2024-01-15T18:54:06.944Z,4.60
2024-01-15T18:56:37.478Z,4.43
2024-01-15T18:59:04.438Z,6.30
2024-01-15T19:01:33.314Z,5.43
2024-01-15T19:04:00.981Z,4.90
2024-01-15T19:06:28.345Z,4.30
2024-01-15T19:08:55.403Z,4.13
2024-01-15T19:11:25.463Z,5.30
2024-01-15T19:13:52.854Z,4.57
2024-01-15T19:16:23.626Z,4.90
2024-01-15T19:18:51.811Z,4.50
2024-01-15T19:21:18.836Z,5.27
2024-01-15T19:23:45.849Z,6.53
2024-01-15T19:26:22.985Z,7.00
2024-01-15T19:28:50.073Z,6.80
2024-01-15T19:31:18.173Z,6.10
2024-01-15T19:33:45.150Z,7.00
2024-01-15T19:36:26.172Z,7.17
2024-01-15T19:38:54.274Z,5.90
2024-01-15T19:41:22.520Z,6.03
2024-01-15T19:43:49.637Z,6.50
2024-01-15T19:46:16.619Z,5.30
2024-01-15T19:48:43.684Z,7.30
2024-01-15T19:51:12.472Z,5.20
2024-01-15T19:53:40.729Z,7.50
2024-01-15T19:56:08.031Z,6.10
2024-01-15T19:58:38.461Z,5.63
2024-01-15T20:01:06.493Z,6.77
2024-01-15T20:03:33.743Z,6.60
2024-01-15T20:06:01.118Z,6.83
2024-01-15T20:08:28.375Z,6.60
2024-01-15T20:10:55.332Z,6.00
2024-01-15T20:13:22.236Z,5.10
2024-01-15T20:15:49.146Z,6.13
2024-01-15T20:18:16.255Z,3.77
2024-01-15T20:20:44.013Z,3.37
2024-01-15T20:23:11.134Z,3.37
2024-01-15T20:25:38.678Z,4.53
2024-01-15T20:28:07.851Z,3.60
2024-01-15T20:30:34.894Z,2.53
2024-01-15T20:33:02.344Z,2.87
2024-01-15T20:35:30.124Z,3.10
2024-01-15T20:37:58.563Z,3.30
2024-01-15T20:40:25.924Z,2.80
2024-01-15T20:42:52.991Z,3.10
2024-01-15T20:45:20.096Z,3.63
2024-01-15T20:47:47.146Z,4.17
2024-01-15T20:50:14.304Z,4.10
2024-01-15T20:52:41.323Z,3.97
2024-01-15T20:55:09.874Z,4.73
2024-01-15T20:57:36.944Z,4.60
2024-01-15T21:00:05.685Z,4.40
2024-01-15T21:02:32.636Z,4.63
2024-01-15T21:04:59.684Z,4.23
2024-01-15T21:07:29.120Z,3.87
2024-01-15T21:09:56.244Z,4.00
2024-01-15T21:12:23.263Z,3.70
2024-01-15T21:14:50.352Z,4.50
2024-01-15T21:17:17.509Z,4.60
2024-01-15T21:19:44.671Z,4.80
2024-01-15T21:22:11.559Z,5.10
2024-01-15T21:24:38.419Z,4.93
2024-01-15T21:27:05.568Z,5.43
2024-01-15T21:29:32.512Z,4.93
2024-01-15T21:31:59.758Z,6.47
2024-01-15T21:34:26.761Z,5.23
2024-01-15T21:36:53.705Z,5.07
2024-01-15T21:39:21.282Z,6.27
2024-01-15T21:41:48.373Z,6.10
2024-01-15T21:44:15.318Z,5.77
2024-01-15T21:46:42.326Z,4.97
2024-01-15T21:49:09.473Z,4.83
2024-01-15T21:51:36.442Z,5.10
2024-01-15T21:54:03.644Z,5.43
2024-01-15T21:56:31.316Z,5.40
2024-01-15T21:58:59.614Z,5.50
2024-01-15T22:01:31.953Z,4.40
2024-01-15T22:03:58.885Z,5.10
2024-01-15T22:06:26.100Z,5.17
2024-01-15T22:08:53.554Z,5.17
2024-01-15T22:11:24.386Z,5.37
2024-01-15T22:13:51.560Z,7.60
2024-01-15T22:16:23.981Z,6.90
2024-01-15T22:18:50.926Z,6.23
2024-01-15T22:21:18.590Z,7.27
2024-01-15T22:23:46.698Z,7.00
2024-01-15T22:26:14.884Z,6.80
2024-01-15T22:28:41.996Z,6.90
2024-01-15T22:31:08.968Z,10.80
2024-01-15T22:33:36.087Z,7.10
2024-01-15T22:36:03.367Z,7.00
2024-01-15T22:38:30.340Z,6.10
2024-01-15T22:40:57.284Z,6.53
2024-01-15T22:43:24.391Z,6.80
2024-01-15T22:45:51.569Z,6.00
2024-01-15T22:48:18.827Z,5.97
2024-01-15T22:50:46.029Z,6.60
2024-01-15T22:53:13.127Z,7.10
2024-01-15T22:55:40.099Z,6.77
2024-01-15T22:58:06.997Z,5.77
2024-01-15T23:00:34.314Z,6.47
2024-01-15T23:03:02.655Z,5.20
2024-01-15T23:05:29.927Z,4.20
2024-01-15T23:07:57.016Z,5.03
2024-01-15T23:10:24.031Z,5.23
2024-01-15T23:12:51.010Z,4.00
2024-01-15T23:15:17.932Z,4.47
2024-01-15T23:17:45.591Z,3.60
2024-01-15T23:20:12.979Z,3.37
2024-01-15T23:22:41.166Z,3.63
2024-01-15T23:25:09.384Z,3.17
2024-01-15T23:27:37.313Z,3.63
2024-01-15T23:30:07.390Z,2.73
2024-01-15T23:32:34.332Z,3.37
2024-01-15T23:35:02.507Z,2.90
2024-01-15T23:37:30.419Z,2.93
2024-01-15T23:39:57.442Z,3.40
2024-01-15T23:42:24.889Z,3.50
2024-01-15T23:44:51.882Z,3.37
2024-01-15T23:47:18.978Z,4.10
2024-01-15T23:49:46.025Z,4.87
2024-01-15T23:52:13.251Z,4.40
2024-01-15T23:54:40.335Z,4.00
2024-01-15T23:57:07.285Z,5.07
2024-01-15T23:59:35.929Z,4.40
